Time;durP1;ratioP1;P1;durP2;ratioP2;P2;SDS_P1;SDS_P2;PMS_P1;PMS_P2;Temp;Humidity;BMP_temperature;BMP_pressure;BME280_temperature;BME280_humidity;BME280_pressure;Samples;Min_cycle;Max_cycle;Signal;HPM_P1;HPM_P2
2024/01/24 00:01:22;;;;;;;1.48;0.90;;;;;;;;;;5124519;27;20230;-63
2024/01/24 00:03:49;;;;;;;1.52;1.13;;;;;;;;;;5139174;27;20210;-63
2024/01/24 00:06:17;;;;;;;1.52;0.85;;;;;;;;;;5139587;27;20618;-63
2024/01/24 00:08:44;;;;;;;1.60;1.00;;;;;;;;;;5139292;27;20263;-64
2024/01/24 00:11:13;;;;;;;1.83;1.00;;;;;;;;;;5138740;27;20231;-64
2024/01/24 00:13:41;;;;;;;2.70;0.90;;;;;;;;;;5138766;27;20213;-64
2024/01/24 00:16:08;;;;;;;3.03;1.02;;;;;;;;;;5138871;27;20234;-64
2024/01/24 00:18:36;;;;;;;2.03;1.00;;;;;;;;;;5138389;27;20208;-64
2024/01/24 00:21:03;;;;;;;2.05;1.10;;;;;;;;;;5138947;27;20202;-64
2024/01/24 00:23:31;;;;;;;1.20;0.90;;;;;;;;;;5138364;27;20198;-64
2024/01/24 00:25:58;;;;;;;2.20;1.08;;;;;;;;;;5138689;27;20336;-64
2024/01/24 00:28:27;;;;;;;1.40;0.90;;;;;;;;;;5138486;27;20202;-64
2024/01/24 00:30:55;;;;;;;1.60;0.90;;;;;;;;;;5138829;27;20288;-64
2024/01/24 00:33:24;;;;;;;1.13;0.80;;;;;;;;;;5138456;27;20574;-64
2024/01/24 00:35:52;;;;;;;1.88;0.90;;;;;;;;;;5138097;27;20285;-64
2024/01/24 00:38:19;;;;;;;1.48;0.70;;;;;;;;;;5138128;27;20202;-64
2024/01/24 00:40:47;;;;;;;1.63;0.90;;;;;;;;;;5138734;27;20519;-64
2024/01/24 00:43:16;;;;;;;1.35;0.90;;;;;;;;;;5138673;27;20305;-64
2024/01/24 00:45:45;;;;;;;1.15;0.63;;;;;;;;;;5138593;27;20308;-64
2024/01/24 00:48:13;;;;;;;1.90;0.70;;;;;;;;;;5138435;27;20578;-64
2024/01/24 00:50:40;;;;;;;0.80;0.65;;;;;;;;;;5138251;27;20574;-64
2024/01/24 00:53:08;;;;;;;1.23;0.65;;;;;;;;;;5138159;27;20281;-64
2024/01/24 00:55:35;;;;;;;1.20;0.80;;;;;;;;;;5138739;27;20281;-64
2024/01/24 00:58:03;;;;;;;1.77;0.80;;;;;;;;;;5138230;27;20237;-64
2024/01/24 01:00:31;;;;;;;1.02;0.70;;;;;;;;;;5138698;27;20205;-64
2024/01/24 01:03:00;;;;;;;0.80;0.60;;;;;;;;;;5118062;27;20239;-64
2024/01/24 01:05:27;;;;;;;1.42;0.80;;;;;;;;;;5117453;28;20222;-64
2024/01/24 01:07:55;;;;;;;1.50;0.80;;;;;;;;;;5118050;28;20202;-64
2024/01/24 01:10:23;;;;;;;1.20;0.70;;;;;;;;;;5117686;28;20207;-63
2024/01/24 01:12:50;;;;;;;1.20;0.90;;;;;;;;;;5117469;28;20267;-63
2024/01/24 01:15:18;;;;;;;1.95;0.70;;;;;;;;;;5117118;28;20210;-64
2024/01/24 01:17:45;;;;;;;0.93;0.60;;;;;;;;;;5118171;28;20540;-64
2024/01/24 01:20:18;;;;;;;1.45;0.80;;;;;;;;;;5117968;28;20285;-64
2024/01/24 01:22:46;;;;;;;1.42;0.70;;;;;;;;;;5117440;28;20560;-64
2024/01/24 01:25:14;;;;;;;0.98;0.73;;;;;;;;;;5120825;28;20211;-64
2024/01/24 01:27:41;;;;;;;1.52;0.90;;;;;;;;;;5121392;28;20222;-64
2024/01/24 01:30:09;;;;;;;0.93;0.65;;;;;;;;;;5121598;28;20270;-64
2024/01/24 01:32:38;;;;;;;1.40;0.80;;;;;;;;;;5121611;28;20249;-64
2024/01/24 01:35:07;;;;;;;0.80;0.50;;;;;;;;;;5121377;28;20298;-64
2024/01/24 01:37:36;;;;;;;0.88;0.50;;;;;;;;;;5121470;28;20199;-64
2024/01/24 01:40:04;;;;;;;1.58;0.70;;;;;;;;;;5121469;28;20203;-64
2024/01/24 01:42:31;;;;;;;0.82;0.70;;;;;;;;;;5121989;28;20507;-64
2024/01/24 01:44:59;;;;;;;0.98;0.75;;;;;;;;;;5121387;28;20214;-64
2024/01/24 01:47:26;;;;;;;0.90;0.65;;;;;;;;;;5121105;28;20222;-64
2024/01/24 01:49:54;;;;;;;0.80;0.70;;;;;;;;;;5121428;28;20209;-64
2024/01/24 01:52:24;;;;;;;1.05;0.63;;;;;;;;;;5121422;28;20211;-64
2024/01/24 01:54:53;;;;;;;1.50;0.70;;;;;;;;;;5120876;28;20199;-64
2024/01/24 01:57:21;;;;;;;2.15;0.90;;;;;;;;;;5121233;28;20202;-64
2024/01/24 01:59:48;;;;;;;0.70;0.60;;;;;;;;;;5121234;28;20633;-64
2024/01/24 02:02:17;;;;;;;1.50;0.82;;;;;;;;;;5121590;28;20534;-64
2024/01/24 02:04:44;;;;;;;1.10;0.50;;;;;;;;;;5120811;28;20238;-64
2024/01/24 02:07:12;;;;;;;0.75;0.60;;;;;;;;;;5121080;28;20231;-64
2024/01/24 02:09:39;;;;;;;1.05;0.65;;;;;;;;;;5121280;28;20225;-64
2024/01/24 02:12:08;;;;;;;1.58;0.80;;;;;;;;;;5118015;28;20204;-64
2024/01/24 02:14:36;;;;;;;0.43;0.40;;;;;;;;;;5120854;28;20207;-64
2024/01/24 02:17:04;;;;;;;1.02;0.60;;;;;;;;;;5121075;28;20238;-64
2024/01/24 02:19:31;;;;;;;0.70;0.60;;;;;;;;;;5120931;28;20203;-64
2024/01/24 02:21:59;;;;;;;0.90;0.70;;;;;;;;;;5120877;28;20524;-64
2024/01/24 02:24:28;;;;;;;0.50;0.43;;;;;;;;;;5120610;28;20203;-64
2024/01/24 02:26:55;;;;;;;0.95;0.40;;;;;;;;;;5120617;28;20592;-64
2024/01/24 02:29:23;;;;;;;1.67;0.80;;;;;;;;;;5120863;28;20202;-64
2024/01/24 02:31:50;;;;;;;1.20;0.65;;;;;;;;;;5120868;28;20460;-64
2024/01/24 02:34:18;;;;;;;0.63;0.55;;;;;;;;;;5120384;28;20645;-64
2024/01/24 02:36:45;;;;;;;1.25;0.57;;;;;;;;;;5120362;28;20238;-64
2024/01/24 02:39:13;;;;;;;1.27;0.63;;;;;;;;;;5120500;28;20228;-64
2024/01/24 02:41:43;;;;;;;0.93;0.70;;;;;;;;;;5120258;28;20203;-64
2024/01/24 02:44:10;;;;;;;1.23;0.80;;;;;;;;;;5120477;28;20211;-64
2024/01/24 02:46:38;;;;;;;1.35;0.50;;;;;;;;;;5120492;28;20420;-64
2024/01/24 02:49:05;;;;;;;0.93;0.60;;;;;;;;;;5120206;28;20238;-64
2024/01/24 02:51:33;;;;;;;0.75;0.70;;;;;;;;;;5120232;28;20279;-64
2024/01/24 02:54:00;;;;;;;1.13;0.60;;;;;;;;;;5120455;28;20267;-64
2024/01/24 02:56:28;;;;;;;0.70;0.70;;;;;;;;;;5119989;28;20260;-64
2024/01/24 02:58:57;;;;;;;0.80;0.60;;;;;;;;;;5119863;28;20206;-64
2024/01/24 03:01:24;;;;;;;1.30;0.68;;;;;;;;;;5119730;27;20241;-64
2024/01/24 03:03:52;;;;;;;1.23;0.60;;;;;;;;;;5120312;28;20203;-64
2024/01/24 03:06:19;;;;;;;0.50;0.50;;;;;;;;;;5119756;28;20591;-64
2024/01/24 03:08:50;;;;;;;0.63;0.63;;;;;;;;;;5120382;28;20256;-64
2024/01/24 03:11:18;;;;;;;1.05;0.80;;;;;;;;;;5119703;28;20268;-64
2024/01/24 03:13:46;;;;;;;1.00;0.63;;;;;;;;;;5119736;28;20203;-64
2024/01/24 03:16:15;;;;;;;0.60;0.57;;;;;;;;;;5119678;28;20203;-64
2024/01/24 03:18:42;;;;;;;1.02;0.60;;;;;;;;;;5120200;28;20206;-64
2024/01/24 03:21:15;;;;;;;0.80;0.60;;;;;;;;;;5119430;28;20505;-64
2024/01/24 03:23:43;;;;;;;0.60;0.50;;;;;;;;;;5119702;28;20210;-64
2024/01/24 03:26:13;;;;;;;0.47;0.38;;;;;;;;;;5119497;28;20230;-64
2024/01/24 03:28:40;;;;;;;1.08;0.60;;;;;;;;;;5119505;28;20203;-64
2024/01/24 03:31:08;;;;;;;1.40;0.52;;;;;;;;;;5119875;28;20209;-64
2024/01/24 03:33:37;;;;;;;0.55;0.55;;;;;;;;;;5119155;28;20211;-64
2024/01/24 03:36:05;;;;;;;0.80;0.68;;;;;;;;;;5119112;28;20233;-64
2024/01/24 03:38:33;;;;;;;0.88;0.77;;;;;;;;;;5119440;28;20203;-64
2024/01/24 03:41:00;;;;;;;0.90;0.50;;;;;;;;;;5119192;28;20556;-64
2024/01/24 03:43:28;;;;;;;1.45;0.80;;;;;;;;;;5119049;28;20237;-64
2024/01/24 03:45:55;;;;;;;0.50;0.50;;;;;;;;;;5118532;28;20285;-64
2024/01/24 03:48:23;;;;;;;0.70;0.60;;;;;;;;;;5117721;28;20223;-64
2024/01/24 03:50:52;;;;;;;0.50;0.50;;;;;;;;;;5118857;28;20290;-64
2024/01/24 03:53:20;;;;;;;0.80;0.50;;;;;;;;;;5118520;28;20590;-64
2024/01/24 03:55:47;;;;;;;0.70;0.70;;;;;;;;;;5118666;28;20203;-64
2024/01/24 03:58:14;;;;;;;0.85;0.50;;;;;;;;;;5118890;28;20199;-64
2024/01/24 04:00:42;;;;;;;1.00;0.60;;;;;;;;;;5118215;28;20215;-64
2024/01/24 04:03:09;;;;;;;1.50;0.50;;;;;;;;;;5118204;28;20264;-64
2024/01/24 04:05:37;;;;;;;0.70;0.65;;;;;;;;;;5119016;28;20203;-64
2024/01/24 04:08:06;;;;;;;0.63;0.50;;;;;;;;;;5118663;28;20277;-64
2024/01/24 04:10:34;;;;;;;1.67;0.70;;;;;;;;;;5118906;28;20232;-64
2024/01/24 04:13:01;;;;;;;0.68;0.47;;;;;;;;;;5118916;28;20578;-64
2024/01/24 04:15:29;;;;;;;1.35;0.52;;;;;;;;;;5118554;28;20203;-64
2024/01/24 04:17:56;;;;;;;0.50;0.50;;;;;;;;;;5118474;28;20574;-64
2024/01/24 04:20:24;;;;;;;0.50;0.50;;;;;;;;;;5118670;28;20203;-64
2024/01/24 04:22:52;;;;;;;0.60;0.60;;;;;;;;;;5118262;28;20587;-64
2024/01/24 04:25:21;;;;;;;0.60;0.60;;;;;;;;;;5118033;28;20203;-64
2024/01/24 04:27:48;;;;;;;1.15;0.70;;;;;;;;;;5118005;28;20510;-64
2024/01/24 04:30:16;;;;;;;0.95;0.60;;;;;;;;;;5118459;28;20202;-64
2024/01/24 04:32:44;;;;;;;1.00;0.50;;;;;;;;;;5118071;28;20203;-64
2024/01/24 04:35:12;;;;;;;0.52;0.52;;;;;;;;;;5117764;28;20261;-64
2024/01/24 04:37:39;;;;;;;0.68;0.50;;;;;;;;;;5118307;28;20276;-64
2024/01/24 04:40:07;;;;;;;0.70;0.50;;;;;;;;;;5117953;28;20203;-64
2024/01/24 04:42:36;;;;;;;0.73;0.50;;;;;;;;;;5117807;28;20264;-64
2024/01/24 04:45:04;;;;;;;0.65;0.52;;;;;;;;;;5117412;28;20241;-64
2024/01/24 04:47:32;;;;;;;0.60;0.60;;;;;;;;;;5118145;28;20231;-64
2024/01/24 04:49:59;;;;;;;0.98;0.50;;;;;;;;;;5117979;28;20568;-64
2024/01/24 04:52:27;;;;;;;0.63;0.60;;;;;;;;;;5117660;28;20221;-64
2024/01/24 04:54:54;;;;;;;1.52;0.70;;;;;;;;;;5117737;28;20210;-64
2024/01/24 04:57:22;;;;;;;1.20;0.60;;;;;;;;;;5117116;28;20654;-64
2024/01/24 04:59:51;;;;;;;0.73;0.60;;;;;;;;;;5117838;28;20678;-64
2024/01/24 05:02:19;;;;;;;1.73;0.77;;;;;;;;;;5131628;27;20290;-64
2024/01/24 05:04:47;;;;;;;0.40;0.40;;;;;;;;;;5137912;28;20202;-64
2024/01/24 05:07:14;;;;;;;0.70;0.55;;;;;;;;;;5137995;27;20613;-64
2024/01/24 05:09:42;;;;;;;1.20;0.60;;;;;;;;;;5137773;27;20271;-64
2024/01/24 05:12:09;;;;;;;0.77;0.70;;;;;;;;;;5138140;28;20266;-64
2024/01/24 05:14:37;;;;;;;1.23;0.60;;;;;;;;;;5137405;28;20205;-64
2024/01/24 05:17:06;;;;;;;0.68;0.55;;;;;;;;;;5137296;28;20198;-64
2024/01/24 05:19:34;;;;;;;0.40;0.35;;;;;;;;;;5137704;28;20206;-64
2024/01/24 05:22:01;;;;;;;1.17;0.60;;;;;;;;;;5138547;28;20556;-64
2024/01/24 05:24:29;;;;;;;0.60;0.50;;;;;;;;;;5137820;27;20203;-64
2024/01/24 05:26:57;;;;;;;0.50;0.50;;;;;;;;;;5137668;27;20225;-64
2024/01/24 05:29:24;;;;;;;0.50;0.50;;;;;;;;;;5138104;27;20202;-64
2024/01/24 05:31:52;;;;;;;0.88;0.60;;;;;;;;;;5137674;28;20206;-64
2024/01/24 05:34:21;;;;;;;0.70;0.52;;;;;;;;;;5137353;28;20661;-64
2024/01/24 05:36:48;;;;;;;0.73;0.45;;;;;;;;;;5137582;27;20214;-64
2024/01/24 05:39:16;;;;;;;0.82;0.60;;;;;;;;;;5137184;27;20230;-64
2024/01/24 05:41:43;;;;;;;1.05;0.60;;;;;;;;;;5137002;28;20202;-64
2024/01/24 05:44:11;;;;;;;0.60;0.52;;;;;;;;;;5136933;28;20210;-64
2024/01/24 05:46:38;;;;;;;0.60;0.50;;;;;;;;;;5137448;27;20213;-64
2024/01/24 05:49:06;;;;;;;0.70;0.70;;;;;;;;;;5137135;28;20249;-64
2024/01/24 05:51:35;;;;;;;1.25;0.60;;;;;;;;;;5137919;27;20202;-64
2024/01/24 05:54:02;;;;;;;0.85;0.70;;;;;;;;;;5136833;28;20218;-64
2024/01/24 05:56:30;;;;;;;1.10;0.60;;;;;;;;;;5135843;27;20251;-64
2024/01/24 05:58:58;;;;;;;0.68;0.60;;;;;;;;;;5135776;27;20649;-64
2024/01/24 06:01:25;;;;;;;0.82;0.50;;;;;;;;;;5135035;28;20687;-64
2024/01/24 06:03:53;;;;;;;0.88;0.52;;;;;;;;;;5135721;28;20198;-64
2024/01/24 06:06:20;;;;;;;0.55;0.50;;;;;;;;;;5135337;27;20198;-64
2024/01/24 06:08:50;;;;;;;1.27;0.70;;;;;;;;;;5135931;28;20234;-64
2024/01/24 06:11:18;;;;;;;0.70;0.60;;;;;;;;;;5138129;27;20232;-64
2024/01/24 06:13:45;;;;;;;0.75;0.40;;;;;;;;;;5139154;27;20210;-64
2024/01/24 06:16:12;;;;;;;0.50;0.50;;;;;;;;;;5138613;27;20214;-64
2024/01/24 06:18:40;;;;;;;1.27;0.52;;;;;;;;;;5138177;27;20266;-64
2024/01/24 06:21:10;;;;;;;0.93;0.60;;;;;;;;;;5139343;27;20289;-64
2024/01/24 06:23:37;;;;;;;1.05;0.68;;;;;;;;;;5138905;27;20296;-64
2024/01/24 06:26:06;;;;;;;1.27;0.40;;;;;;;;;;5139497;27;20289;-64
2024/01/24 06:28:33;;;;;;;0.70;0.50;;;;;;;;;;5139312;27;20222;-64
2024/01/24 06:31:01;;;;;;;0.68;0.40;;;;;;;;;;5138234;27;20589;-64
2024/01/24 06:33:28;;;;;;;0.60;0.50;;;;;;;;;;5139790;27;20705;-64
2024/01/24 06:35:57;;;;;;;0.80;0.60;;;;;;;;;;5138685;27;20770;-64
2024/01/24 06:38:25;;;;;;;0.70;0.50;;;;;;;;;;5138752;27;20222;-64
2024/01/24 06:40:52;;;;;;;0.60;0.50;;;;;;;;;;5138650;27;20262;-64
2024/01/24 06:43:21;;;;;;;0.57;0.50;;;;;;;;;;5138397;27;20198;-64
2024/01/24 06:45:49;;;;;;;1.00;0.60;;;;;;;;;;5139219;27;20214;-64
2024/01/24 06:48:18;;;;;;;0.50;0.50;;;;;;;;;;5138532;27;20222;-64
2024/01/24 06:50:45;;;;;;;0.80;0.70;;;;;;;;;;5138019;27;20206;-64
2024/01/24 06:53:14;;;;;;;0.50;0.50;;;;;;;;;;5138709;27;20209;-64
2024/01/24 06:55:42;;;;;;;0.63;0.40;;;;;;;;;;5139109;27;20210;-64
2024/01/24 06:58:09;;;;;;;0.50;0.50;;;;;;;;;;5138869;27;20296;-64
2024/01/24 07:00:38;;;;;;;0.65;0.55;;;;;;;;;;5137583;27;20202;-64
2024/01/24 07:03:07;;;;;;;0.40;0.40;;;;;;;;;;5118512;28;20244;-64
2024/01/24 07:05:35;;;;;;;0.43;0.40;;;;;;;;;;5117893;28;20625;-64
2024/01/24 07:08:02;;;;;;;0.60;0.50;;;;;;;;;;5117722;28;20509;-64
2024/01/24 07:10:30;;;;;;;1.02;0.50;;;;;;;;;;5118175;28;20207;-64
2024/01/24 07:12:57;;;;;;;0.85;0.55;;;;;;;;;;5117822;28;20203;-64
2024/01/24 07:15:26;;;;;;;0.50;0.38;;;;;;;;;;5118941;28;20203;-64
2024/01/24 07:17:55;;;;;;;0.40;0.40;;;;;;;;;;5117888;28;20250;-64
2024/01/24 07:20:23;;;;;;;0.60;0.60;;;;;;;;;;5117512;28;20207;-64
2024/01/24 07:22:51;;;;;;;0.60;0.50;;;;;;;;;;5117711;28;20214;-64
2024/01/24 07:25:19;;;;;;;1.00;0.60;;;;;;;;;;5117866;28;20238;-64
2024/01/24 07:27:47;;;;;;;1.15;0.50;;;;;;;;;;5117383;28;20225;-64
2024/01/24 07:30:15;;;;;;;1.08;0.50;;;;;;;;;;5117232;28;20202;-64
2024/01/24 07:32:43;;;;;;;0.57;0.45;;;;;;;;;;5117794;28;20256;-64
2024/01/24 07:35:12;;;;;;;0.68;0.55;;;;;;;;;;5116871;28;20210;-64
2024/01/24 07:37:40;;;;;;;1.42;0.60;;;;;;;;;;5116883;28;20199;-64
2024/01/24 07:40:10;;;;;;;0.88;0.43;;;;;;;;;;5117524;28;20543;-64
2024/01/24 07:42:37;;;;;;;0.93;0.43;;;;;;;;;;5117306;28;20203;-64
2024/01/24 07:45:08;;;;;;;0.50;0.50;;;;;;;;;;5117173;28;20211;-64
2024/01/24 07:47:36;;;;;;;0.68;0.60;;;;;;;;;;5116494;28;20250;-64
2024/01/24 07:50:05;;;;;;;0.88;0.50;;;;;;;;;;5116524;28;20202;-64
2024/01/24 07:52:33;;;;;;;0.63;0.63;;;;;;;;;;5116550;28;20599;-64
2024/01/24 07:55:01;;;;;;;0.77;0.50;;;;;;;;;;5117561;28;20263;-64
2024/01/24 07:57:29;;;;;;;0.50;0.50;;;;;;;;;;5117670;28;20235;-64
2024/01/24 07:59:56;;;;;;;0.70;0.50;;;;;;;;;;5118359;28;20211;-64
2024/01/24 08:02:24;;;;;;;0.50;0.50;;;;;;;;;;5116274;28;20250;-64
2024/01/24 08:04:51;;;;;;;0.60;0.57;;;;;;;;;;5117638;28;20510;-64
2024/01/24 08:07:19;;;;;;;0.60;0.60;;;;;;;;;;5117159;28;20217;-64
2024/01/24 08:09:48;;;;;;;0.63;0.63;;;;;;;;;;5116743;28;20219;-64
2024/01/24 08:12:16;;;;;;;0.52;0.50;;;;;;;;;;5117491;28;20203;-64
2024/01/24 08:14:44;;;;;;;0.60;0.43;;;;;;;;;;5117206;28;20207;-64
2024/01/24 08:17:11;;;;;;;0.75;0.57;;;;;;;;;;5117500;28;20203;-64
2024/01/24 08:19:40;;;;;;;0.50;0.50;;;;;;;;;;5116496;28;20545;-64
2024/01/24 08:22:07;;;;;;;0.40;0.40;;;;;;;;;;5117206;28;20289;-64
2024/01/24 08:24:35;;;;;;;0.80;0.60;;;;;;;;;;5117753;28;20195;-64
2024/01/24 08:27:04;;;;;;;0.45;0.45;;;;;;;;;;5116117;28;20234;-64
2024/01/24 08:29:32;;;;;;;0.77;0.60;;;;;;;;;;5116882;28;20615;-64
2024/01/24 08:32:00;;;;;;;0.57;0.40;;;;;;;;;;5116714;28;20284;-64
2024/01/24 08:34:27;;;;;;;0.50;0.50;;;;;;;;;;5115947;28;20207;-64
2024/01/24 08:36:55;;;;;;;0.52;0.40;;;;;;;;;;5117291;28;20693;-64
2024/01/24 08:39:22;;;;;;;0.93;0.63;;;;;;;;;;5115918;28;20199;-64
2024/01/24 08:41:50;;;;;;;0.73;0.45;;;;;;;;;;5116379;28;20199;-64
2024/01/24 08:44:20;;;;;;;0.50;0.50;;;;;;;;;;5116931;28;20598;-64
2024/01/24 08:46:48;;;;;;;0.45;0.40;;;;;;;;;;5117002;28;20199;-64
2024/01/24 08:49:16;;;;;;;0.45;0.43;;;;;;;;;;5116539;28;20238;-64
2024/01/24 08:51:44;;;;;;;0.95;0.50;;;;;;;;;;5117018;28;20195;-64
2024/01/24 08:54:12;;;;;;;0.40;0.40;;;;;;;;;;5117529;28;20542;-64
2024/01/24 08:56:39;;;;;;;0.45;0.43;;;;;;;;;;5116401;28;20203;-64
2024/01/24 08:59:07;;;;;;;0.65;0.40;;;;;;;;;;5116666;28;20663;-64
2024/01/24 09:01:36;;;;;;;0.85;0.43;;;;;;;;;;5116417;27;20243;-64
2024/01/24 09:04:04;;;;;;;0.73;0.50;;;;;;;;;;5116253;28;20206;-64
2024/01/24 09:06:32;;;;;;;0.50;0.40;;;;;;;;;;5116933;28;20198;-64
2024/01/24 09:08:59;;;;;;;0.93;0.50;;;;;;;;;;5116583;28;20666;-64
2024/01/24 09:11:27;;;;;;;0.40;0.40;;;;;;;;;;5116417;28;20202;-64
2024/01/24 09:13:54;;;;;;;0.32;0.30;;;;;;;;;;5116429;28;20214;-64
2024/01/24 09:16:22;;;;;;;0.40;0.40;;;;;;;;;;5116923;28;20230;-64
2024/01/24 09:18:51;;;;;;;0.60;0.40;;;;;;;;;;5116550;28;20207;-64
2024/01/24 09:21:19;;;;;;;0.75;0.40;;;;;;;;;;5116374;28;20264;-64
2024/01/24 09:23:49;;;;;;;0.45;0.45;;;;;;;;;;5116104;28;20602;-64
2024/01/24 09:26:17;;;;;;;0.75;0.50;;;;;;;;;;5115663;28;20616;-64
2024/01/24 09:28:44;;;;;;;0.43;0.40;;;;;;;;;;5116771;28;20226;-64
2024/01/24 09:31:12;;;;;;;0.45;0.40;;;;;;;;;;5116318;28;20264;-64
2024/01/24 09:33:39;;;;;;;0.50;0.43;;;;;;;;;;5116744;28;20203;-64
2024/01/24 09:36:09;;;;;;;0.50;0.40;;;;;;;;;;5116525;28;20579;-64
2024/01/24 09:38:37;;;;;;;0.68;0.52;;;;;;;;;;5116469;28;20506;-64
2024/01/24 09:41:07;;;;;;;0.40;0.40;;;;;;;;;;5116100;28;20591;-64
2024/01/24 09:43:38;;;;;;;0.63;0.40;;;;;;;;;;5116521;28;20203;-64
2024/01/24 09:46:09;;;;;;;0.40;0.35;;;;;;;;;;5119035;28;20591;-64
2024/01/24 09:48:36;;;;;;;0.40;0.40;;;;;;;;;;5120044;28;20237;-64
2024/01/24 09:51:04;;;;;;;0.60;0.45;;;;;;;;;;5120030;28;20264;-64
2024/01/24 09:53:34;;;;;;;0.40;0.40;;;;;;;;;;5119390;28;20203;-64
2024/01/24 09:56:02;;;;;;;0.60;0.40;;;;;;;;;;5119375;28;20199;-64
2024/01/24 09:58:30;;;;;;;0.60;0.50;;;;;;;;;;5119914;28;20203;-64
2024/01/24 10:00:58;;;;;;;0.60;0.45;;;;;;;;;;5119204;28;20268;-64
2024/01/24 10:03:26;;;;;;;0.50;0.50;;;;;;;;;;5119889;28;20763;-64
2024/01/24 10:05:54;;;;;;;0.38;0.38;;;;;;;;;;5119539;28;20234;-64
2024/01/24 10:08:22;;;;;;;0.30;0.30;;;;;;;;;;5119406;28;20280;-64
2024/01/24 10:10:51;;;;;;;0.38;0.38;;;;;;;;;;5119643;28;20207;-64
2024/01/24 10:13:18;;;;;;;0.40;0.40;;;;;;;;;;5119326;28;20214;-64
2024/01/24 10:15:46;;;;;;;0.40;0.30;;;;;;;;;;5118795;28;20202;-64
2024/01/24 10:18:14;;;;;;;0.30;0.30;;;;;;;;;;5117630;28;20215;-64
2024/01/24 10:20:43;;;;;;;0.30;0.30;;;;;;;;;;5119217;28;20484;-64
2024/01/24 10:23:11;;;;;;;0.30;0.30;;;;;;;;;;5119162;28;20203;-64
2024/01/24 10:25:41;;;;;;;0.40;0.38;;;;;;;;;;5118673;28;20268;-64
2024/01/24 10:28:13;;;;;;;0.40;0.40;;;;;;;;;;5118644;28;20233;-64
2024/01/24 10:30:41;;;;;;;0.60;0.50;;;;;;;;;;5119075;28;20301;-64
2024/01/24 10:33:12;;;;;;;0.70;0.40;;;;;;;;;;5118552;28;20203;-64
2024/01/24 10:35:40;;;;;;;0.40;0.35;;;;;;;;;;5118241;28;20206;-64
2024/01/24 10:38:11;;;;;;;0.45;0.30;;;;;;;;;;5118858;28;20640;-64
2024/01/24 10:40:40;;;;;;;0.40;0.30;;;;;;;;;;5118812;28;20260;-64
2024/01/24 10:43:11;;;;;;;0.60;0.30;;;;;;;;;;5118554;28;20245;-64
2024/01/24 10:45:42;;;;;;;0.60;0.50;;;;;;;;;;5118424;28;20203;-64
2024/01/24 10:48:10;;;;;;;0.40;0.35;;;;;;;;;;5118349;28;20203;-64
2024/01/24 10:50:39;;;;;;;0.20;0.20;;;;;;;;;;5118079;28;20222;-64
2024/01/24 10:53:07;;;;;;;0.63;0.32;;;;;;;;;;5118526;28;20207;-64
2024/01/24 10:55:35;;;;;;;0.45;0.40;;;;;;;;;;5117880;28;20203;-64
2024/01/24 10:58:02;;;;;;;0.47;0.40;;;;;;;;;;5117830;28;20552;-64
2024/01/24 11:00:30;;;;;;;0.30;0.30;;;;;;;;;;5117815;28;20210;-64
2024/01/24 11:02:59;;;;;;;0.35;0.30;;;;;;;;;;5137684;27;20757;-64
2024/01/24 11:05:30;;;;;;;0.65;0.40;;;;;;;;;;5138279;27;20529;-64
2024/01/24 11:08:03;;;;;;;0.73;0.30;;;;;;;;;;5139532;27;20202;-64
2024/01/24 11:10:33;;;;;;;0.35;0.30;;;;;;;;;;5138005;27;20267;-64
2024/01/24 11:13:01;;;;;;;0.52;0.50;;;;;;;;;;5137435;27;20198;-64
2024/01/24 11:15:31;;;;;;;0.82;0.40;;;;;;;;;;5137356;27;20289;-64
2024/01/24 11:18:17;;;;;;;1.02;0.65;;;;;;;;;;5137286;27;20198;-64
2024/01/24 11:20:51;;;;;;;0.63;0.45;;;;;;;;;;5137371;27;20210;-64
2024/01/24 11:23:35;;;;;;;0.77;0.40;;;;;;;;;;5138237;27;20561;-64
2024/01/24 11:26:02;;;;;;;0.50;0.30;;;;;;;;;;5137469;27;20206;-64
2024/01/24 11:28:30;;;;;;;0.52;0.50;;;;;;;;;;5138147;27;20214;-64
2024/01/24 11:30:58;;;;;;;0.40;0.40;;;;;;;;;;5137342;27;20225;-63
2024/01/24 11:33:25;;;;;;;0.55;0.50;;;;;;;;;;5137411;27;20203;-63
2024/01/24 11:35:56;;;;;;;1.42;0.50;;;;;;;;;;5135677;27;20736;-63
2024/01/24 11:38:37;;;;;;;1.67;0.50;;;;;;;;;;5136003;27;20266;-63
2024/01/24 11:41:11;;;;;;;0.80;0.30;;;;;;;;;;5136719;27;20237;-63
2024/01/24 11:43:39;;;;;;;0.70;0.50;;;;;;;;;;5137103;27;20209;-63
2024/01/24 11:46:07;;;;;;;1.25;0.50;;;;;;;;;;5136628;27;20225;-63
2024/01/24 11:48:36;;;;;;;0.88;0.40;;;;;;;;;;5136874;27;20210;-63
2024/01/24 11:51:06;;;;;;;1.30;0.57;;;;;;;;;;5137158;27;20210;-64
2024/01/24 11:53:34;;;;;;;0.90;0.40;;;;;;;;;;5136257;27;20198;-64
2024/01/24 11:56:03;;;;;;;0.60;0.55;;;;;;;;;;5136825;27;20202;-64
2024/01/24 11:58:31;;;;;;;1.58;0.63;;;;;;;;;;5126920;27;20237;-64
2024/01/24 12:01:00;;;;;;;1.48;0.60;;;;;;;;;;5118978;27;20211;-64
2024/01/24 12:03:28;;;;;;;0.75;0.63;;;;;;;;;;5136193;27;20206;-64
2024/01/24 12:05:55;;;;;;;1.15;0.50;;;;;;;;;;5135589;27;20298;-63
2024/01/24 12:08:24;;;;;;;1.85;0.60;;;;;;;;;;5135567;27;20237;-64
2024/01/24 12:10:52;;;;;;;0.80;0.50;;;;;;;;;;5137038;27;20587;-64
2024/01/24 12:13:20;;;;;;;3.80;0.70;;;;;;;;;;5136103;27;20315;-64
2024/01/24 12:15:48;;;;;;;1.13;0.60;;;;;;;;;;5136552;27;20574;-63
2024/01/24 12:18:16;;;;;;;1.33;0.63;;;;;;;;;;5135810;27;20202;-64
2024/01/24 12:20:46;;;;;;;0.43;0.40;;;;;;;;;;5135024;27;20194;-64
2024/01/24 12:23:14;;;;;;;0.60;0.43;;;;;;;;;;5135980;27;20202;-64
2024/01/24 12:25:44;;;;;;;1.83;0.60;;;;;;;;;;5136296;27;20554;-64
2024/01/24 12:28:12;;;;;;;0.98;0.50;;;;;;;;;;5136017;27;20202;-63
2024/01/24 12:30:40;;;;;;;0.98;0.47;;;;;;;;;;5136141;27;20283;-63
2024/01/24 12:33:09;;;;;;;1.67;0.50;;;;;;;;;;5136875;27;20602;-63
2024/01/24 12:35:37;;;;;;;1.13;0.55;;;;;;;;;;5136111;27;20566;-64
2024/01/24 12:38:05;;;;;;;1.25;0.50;;;;;;;;;;5136228;27;20279;-63
2024/01/24 12:40:33;;;;;;;1.40;0.80;;;;;;;;;;5135801;27;20789;-63
2024/01/24 12:43:02;;;;;;;1.45;0.70;;;;;;;;;;5135423;27;20245;-63
2024/01/24 12:45:30;;;;;;;1.95;0.73;;;;;;;;;;5134904;27;20535;-63
2024/01/24 12:47:57;;;;;;;1.52;0.70;;;;;;;;;;5135850;27;20688;-63
2024/01/24 12:50:25;;;;;;;1.88;0.80;;;;;;;;;;5135665;27;20697;-63
2024/01/24 12:52:52;;;;;;;1.33;0.70;;;;;;;;;;5134917;27;20209;-63
2024/01/24 12:55:20;;;;;;;1.15;0.60;;;;;;;;;;5134813;27;20559;-63
2024/01/24 12:57:48;;;;;;;1.00;0.50;;;;;;;;;;5135741;27;20245;-63
2024/01/24 13:00:17;;;;;;;1.42;0.60;;;;;;;;;;5135348;27;20199;-63
2024/01/24 13:02:44;;;;;;;1.55;0.75;;;;;;;;;;5135382;27;20237;-63
2024/01/24 13:05:12;;;;;;;1.83;0.70;;;;;;;;;;5135783;27;20651;-63
2024/01/24 13:07:39;;;;;;;1.70;0.73;;;;;;;;;;5135685;28;20462;-63
2024/01/24 13:10:08;;;;;;;2.13;0.70;;;;;;;;;;5136079;28;20320;-63
2024/01/24 13:12:35;;;;;;;1.30;0.80;;;;;;;;;;5136420;28;20298;-63
2024/01/24 13:15:04;;;;;;;2.08;0.80;;;;;;;;;;5135563;28;20202;-63
2024/01/24 13:17:33;;;;;;;1.23;0.60;;;;;;;;;;5136098;28;20298;-64
2024/01/24 13:20:04;;;;;;;1.52;0.90;;;;;;;;;;5138677;27;20269;-64
2024/01/24 13:22:32;;;;;;;1.45;0.60;;;;;;;;;;5139627;27;20202;-63
2024/01/24 13:25:00;;;;;;;2.05;0.90;;;;;;;;;;5140051;27;20228;-63
2024/01/24 13:27:27;;;;;;;0.95;0.68;;;;;;;;;;5140077;27;20221;-63
2024/01/24 13:29:55;;;;;;;1.25;0.70;;;;;;;;;;5140156;27;20277;-63
2024/01/24 13:32:22;;;;;;;2.08;0.80;;;;;;;;;;5139764;27;20202;-63
2024/01/24 13:34:51;;;;;;;1.88;0.73;;;;;;;;;;5138566;27;20267;-63
2024/01/24 13:37:19;;;;;;;1.60;0.80;;;;;;;;;;5138227;27;20229;-64
2024/01/24 13:39:47;;;;;;;1.25;0.70;;;;;;;;;;5138380;27;20481;-64
2024/01/24 13:42:14;;;;;;;0.98;0.80;;;;;;;;;;5138562;27;20202;-64
2024/01/24 13:44:41;;;;;;;2.30;0.90;;;;;;;;;;5138370;27;20285;-63
2024/01/24 13:47:09;;;;;;;1.17;0.77;;;;;;;;;;5138664;27;20201;-63
2024/01/24 13:49:41;;;;;;;1.83;0.73;;;;;;;;;;5139180;27;20226;-63
2024/01/24 13:52:10;;;;;;;1.20;0.63;;;;;;;;;;5139989;27;20233;-63
2024/01/24 13:54:38;;;;;;;1.52;0.70;;;;;;;;;;5139969;27;20267;-63
2024/01/24 13:57:05;;;;;;;1.38;0.70;;;;;;;;;;5139141;27;20206;-64
2024/01/24 13:59:33;;;;;;;1.75;0.77;;;;;;;;;;5139731;27;20709;-64
2024/01/24 14:02:00;;;;;;;1.33;0.65;;;;;;;;;;5139670;27;20262;-64
2024/01/24 14:04:28;;;;;;;1.08;0.70;;;;;;;;;;5139274;27;20198;-64
2024/01/24 14:06:56;;;;;;;1.77;0.60;;;;;;;;;;5139594;27;20210;-64
2024/01/24 14:09:25;;;;;;;1.55;0.95;;;;;;;;;;5139342;27;20199;-63
2024/01/24 14:11:54;;;;;;;1.13;0.70;;;;;;;;;;5139700;27;20229;-63
2024/01/24 14:14:22;;;;;;;1.10;0.68;;;;;;;;;;5138772;27;20575;-63
2024/01/24 14:16:49;;;;;;;1.88;0.77;;;;;;;;;;5139388;27;20590;-63
2024/01/24 14:19:17;;;;;;;1.88;0.90;;;;;;;;;;5138831;27;20202;-63
2024/01/24 14:21:45;;;;;;;1.08;0.82;;;;;;;;;;5138875;27;20281;-63
2024/01/24 14:24:13;;;;;;;1.00;0.63;;;;;;;;;;5138399;27;20202;-63
2024/01/24 14:26:42;;;;;;;1.27;0.75;;;;;;;;;;5138242;27;20213;-63
2024/01/24 14:29:09;;;;;;;3.38;1.20;;;;;;;;;;5137965;27;20202;-63
2024/01/24 14:31:37;;;;;;;1.35;0.60;;;;;;;;;;5136400;27;20337;-63
2024/01/24 14:34:04;;;;;;;1.77;0.90;;;;;;;;;;5137401;27;20782;-63
2024/01/24 14:36:32;;;;;;;1.25;0.90;;;;;;;;;;5136703;27;20218;-63
2024/01/24 14:39:00;;;;;;;2.22;0.85;;;;;;;;;;5137762;27;20202;-64
2024/01/24 14:41:27;;;;;;;1.50;0.85;;;;;;;;;;5138089;27;20243;-64
2024/01/24 14:43:56;;;;;;;2.17;0.80;;;;;;;;;;5138405;27;20226;-64
2024/01/24 14:46:24;;;;;;;1.48;0.80;;;;;;;;;;5138571;27;20213;-64
2024/01/24 14:48:52;;;;;;;1.10;0.60;;;;;;;;;;5137737;27;20213;-64